Terminal Aerodrome Forecast
Issued by NWS

Home | Current Version | Previous Version | Text Only | Print | Product List | Glossary On
Versions: 1 2 3 4 5 6 7 8 9 10 11 12 13 14 15 16 17
387
FTUS46 KSEW 231722
TAFBLI
TAF
KBLI 231722Z 2318/2418 17010KT P6SM OVC080
     FM231900 16016G24KT 5SM -SN OVC030
     FM240000 15012KT P6SM VCSH BKN015 OVC030
     FM240700 13010KT P6SM -SHRA OVC015=

USA.gov is the U.S. government's official web portal to all federal, state and local government web resources and services.